Time;durP1;ratioP1;P1;durP2;ratioP2;P2;SDS_P1;SDS_P2;PMS_P1;PMS_P2;Temp;Humidity;BMP_temperature;BMP_pressure;BME280_temperature;BME280_humidity;BME280_pressure;Samples;Min_cycle;Max_cycle;Signal;HPM_P1;HPM_P2
2024/01/19 00:00:41;;;;;;;16.98;9.32;;;;;;;9.37;89.26;92867.31;5083382;28;20319;-79
2024/01/19 00:03:06;;;;;;;16.20;10.15;;;;;;;9.36;89.52;92870.31;5083570;28;20028;-80
2024/01/19 00:05:32;;;;;;;15.68;10.70;;;;;;;9.31;89.61;92867.88;5083349;28;20103;-79
2024/01/19 00:07:57;;;;;;;19.27;10.88;;;;;;;9.27;90.04;92866.97;5083372;28;20032;-79
2024/01/19 00:10:22;;;;;;;18.83;10.93;;;;;;;9.26;90.29;92874.19;5083261;28;20032;-80
2024/01/19 00:12:48;;;;;;;20.33;11.38;;;;;;;9.24;90.43;92863.88;5083511;28;20370;-79
2024/01/19 00:15:13;;;;;;;15.43;10.70;;;;;;;9.24;90.65;92885.13;5083082;28;20031;-79
2024/01/19 00:17:39;;;;;;;23.75;11.27;;;;;;;9.23;90.68;92890.78;5083213;28;20016;-79
2024/01/19 00:20:08;;;;;;;18.98;12.88;;;;;;;9.19;90.84;92900.50;5083198;28;20099;-79
2024/01/19 00:22:34;;;;;;;22.23;12.25;;;;;;;9.21;91.02;92892.97;5083150;28;20024;-79
2024/01/19 00:24:59;;;;;;;20.70;11.88;;;;;;;9.18;91.13;92880.31;5083017;28;20027;-80
2024/01/19 00:27:25;;;;;;;21.48;10.82;;;;;;;9.18;91.02;92881.13;5082913;28;20250;-79
2024/01/19 00:29:50;;;;;;;16.20;10.45;;;;;;;9.20;91.33;92878.16;5083161;28;20020;-79
2024/01/19 00:32:15;;;;;;;17.63;10.68;;;;;;;9.22;91.11;92867.97;5082856;28;20020;-79
2024/01/19 00:34:41;;;;;;;13.40;8.55;;;;;;;9.20;91.05;92880.81;5083095;28;20077;-78
2024/01/19 00:37:07;;;;;;;12.80;7.40;;;;;;;9.19;90.93;92885.31;5082973;28;20016;-79
2024/01/19 00:39:32;;;;;;;18.00;8.40;;;;;;;9.17;91.08;92884.88;5082967;28;20069;-80
2024/01/19 00:41:58;;;;;;;15.23;8.73;;;;;;;9.16;90.94;92877.22;5082730;28;20013;-79
2024/01/19 00:44:23;;;;;;;20.75;12.13;;;;;;;9.16;91.19;92883.34;5082838;28;20192;-79
2024/01/19 00:46:50;;;;;;;19.52;11.50;;;;;;;9.15;91.20;92900.38;5083031;28;20322;-80
2024/01/19 00:49:16;;;;;;;21.95;10.52;;;;;;;9.12;91.11;92882.44;5082685;28;20016;-79
2024/01/19 00:51:41;;;;;;;19.30;10.27;;;;;;;9.10;91.17;92883.84;5082738;28;20036;-79
2024/01/19 00:54:07;;;;;;;16.90;10.27;;;;;;;9.10;91.14;92889.97;5082793;28;20036;-79
2024/01/19 00:56:33;;;;;;;15.98;9.45;;;;;;;9.09;91.21;92892.94;5081244;28;20214;-80
2024/01/19 00:58:58;;;;;;;16.05;9.20;;;;;;;9.10;91.14;92891.81;5081650;28;20032;-85
2024/01/19 01:01:24;;;;;;;15.15;8.57;;;;;;;9.10;91.01;92900.59;5082712;28;20013;-85
2024/01/19 01:03:49;;;;;;;17.48;8.27;;;;;;;9.08;91.10;92902.00;5083128;28;20021;-84
2024/01/19 01:06:14;;;;;;;12.50;6.95;;;;;;;9.08;91.05;92897.47;5082712;28;20091;-84
2024/01/19 01:08:40;;;;;;;14.18;7.15;;;;;;;9.07;91.08;92890.59;5082879;28;20026;-84
2024/01/19 01:11:05;;;;;;;9.13;5.70;;;;;;;9.08;90.93;92907.31;5082827;28;20269;-84
2024/01/19 01:13:32;;;;;;;8.63;4.60;;;;;;;9.06;90.84;92882.94;5082989;28;20058;-84
2024/01/19 01:15:57;;;;;;;8.88;4.43;;;;;;;9.07;90.77;92887.94;5082687;28;20323;-84
2024/01/19 01:18:23;;;;;;;9.55;3.95;;;;;;;9.08;90.54;92902.81;5082904;28;20025;-84
2024/01/19 01:20:50;;;;;;;6.72;3.40;;;;;;;9.06;90.20;92888.25;5083162;28;20017;-84
2024/01/19 01:23:16;;;;;;;7.03;3.38;;;;;;;9.04;90.75;92892.03;5082597;28;20062;-84
2024/01/19 01:25:41;;;;;;;4.45;2.47;;;;;;;9.06;90.77;92894.38;5082444;28;20107;-83
2024/01/19 01:28:06;;;;;;;8.10;3.38;;;;;;;9.04;90.66;92881.41;5082781;28;20020;-84
2024/01/19 01:30:32;;;;;;;5.45;3.53;;;;;;;9.03;90.74;92889.69;5082564;28;20046;-84
2024/01/19 01:32:57;;;;;;;6.97;2.80;;;;;;;9.02;90.77;92883.63;5082716;28;20311;-84
2024/01/19 01:35:23;;;;;;;6.50;3.38;;;;;;;9.03;90.35;92885.16;5082677;28;20062;-81
2024/01/19 01:37:48;;;;;;;6.43;3.72;;;;;;;9.05;90.25;92892.81;5082637;28;20103;-85
2024/01/19 01:40:14;;;;;;;4.88;2.90;;;;;;;9.03;90.21;92881.72;5082248;28;20028;-83
2024/01/19 01:42:39;;;;;;;8.93;3.60;;;;;;;9.04;90.09;92867.34;5082262;28;20024;-85
2024/01/19 01:45:05;;;;;;;6.97;2.90;;;;;;;9.01;90.16;92879.38;5082350;28;20024;-84
2024/01/19 01:47:31;;;;;;;6.75;3.13;;;;;;;9.03;89.82;92897.66;5082353;28;20024;-85
2024/01/19 01:49:57;;;;;;;6.78;3.42;;;;;;;9.02;89.69;92888.16;5082221;28;20088;-84
2024/01/19 01:52:23;;;;;;;6.47;3.40;;;;;;;8.93;90.29;92892.75;5082340;28;20024;-84
2024/01/19 01:54:51;;;;;;;6.93;3.30;;;;;;;8.99;90.25;92888.78;5082456;28;20020;-84
2024/01/19 01:57:20;;;;;;;6.78;3.20;;;;;;;9.03;90.09;92892.34;5082357;28;20017;-85
2024/01/19 01:59:47;;;;;;;6.25;3.10;;;;;;;9.03;89.82;92889.69;5082131;28;20044;-84
2024/01/19 02:02:12;;;;;;;6.68;3.38;;;;;;;9.03;89.53;92885.16;5081188;28;20099;-84
2024/01/19 02:04:39;;;;;;;6.65;2.80;;;;;;;9.01;89.67;92884.69;5082170;28;20077;-83
2024/01/19 02:07:04;;;;;;;6.45;3.10;;;;;;;9.01;89.61;92886.59;5082384;28;20022;-84
2024/01/19 02:09:30;;;;;;;5.47;2.70;;;;;;;9.01;89.64;92875.97;5083894;28;20356;-81
2024/01/19 02:11:57;;;;;;;5.03;2.88;;;;;;;8.96;89.80;92890.22;5085537;28;20044;-81
2024/01/19 02:14:22;;;;;;;6.22;3.25;;;;;;;8.96;89.59;92894.78;5084326;28;20024;-82
2024/01/19 02:16:47;;;;;;;4.45;2.70;;;;;;;8.97;89.48;92891.78;5085862;28;20066;-82
2024/01/19 02:19:13;;;;;;;4.78;2.80;;;;;;;8.98;89.38;92889.91;5085279;28;20016;-82
2024/01/19 02:21:38;;;;;;;7.47;3.55;;;;;;;8.97;89.22;92907.72;5085588;28;20135;-82
2024/01/19 02:24:05;;;;;;;9.32;3.15;;;;;;;8.93;89.02;92900.72;5085494;28;20043;-83
2024/01/19 02:26:32;;;;;;;7.82;2.70;;;;;;;8.91;89.39;92893.06;5085416;28;20095;-82
2024/01/19 02:28:57;;;;;;;8.00;2.65;;;;;;;8.88;89.39;92893.75;5085439;28;20032;-83
2024/01/19 02:31:23;;;;;;;6.47;2.85;;;;;;;8.84;89.20;92909.56;5085214;28;20360;-83
2024/01/19 02:33:49;;;;;;;6.80;3.28;;;;;;;8.73;89.51;92923.53;5085520;28;20029;-83
2024/01/19 02:36:14;;;;;;;7.10;3.00;;;;;;;8.72;89.60;92928.09;5084158;28;20029;-83
2024/01/19 02:38:39;;;;;;;7.20;3.30;;;;;;;8.70;89.67;92924.97;5084966;28;20065;-82
2024/01/19 02:41:05;;;;;;;8.13;3.38;;;;;;;8.67;89.72;92924.84;5084104;28;20055;-82
2024/01/19 02:43:30;;;;;;;7.10;2.97;;;;;;;8.64;89.63;92932.34;5083828;28;20071;-82
2024/01/19 02:45:56;;;;;;;5.60;2.58;;;;;;;8.63;89.70;92925.50;5085065;28;20028;-83
2024/01/19 02:48:21;;;;;;;7.80;2.70;;;;;;;8.61;89.44;92929.59;5085134;28;20250;-83
2024/01/19 02:50:48;;;;;;;7.28;2.83;;;;;;;8.60;89.53;92928.00;5084884;28;20268;-84
2024/01/19 02:53:13;;;;;;;5.85;3.28;;;;;;;8.58;89.77;92941.59;5084847;28;20059;-83
2024/01/19 02:55:38;;;;;;;5.35;2.25;;;;;;;8.53;89.56;92941.81;5084803;28;20024;-83
2024/01/19 02:58:04;;;;;;;4.18;2.58;;;;;;;8.51;89.78;92941.34;5084742;28;20280;-83
2024/01/19 03:00:29;;;;;;;7.35;2.92;;;;;;;8.49;89.58;92940.91;5084736;28;20054;-84
2024/01/19 03:02:55;;;;;;;8.38;2.72;;;;;;;8.48;89.47;92954.50;5084831;28;20028;-84
2024/01/19 03:05:20;;;;;;;6.13;2.42;;;;;;;8.44;89.38;92949.03;5084704;28;20219;-84
2024/01/19 03:07:46;;;;;;;5.40;2.53;;;;;;;8.42;89.59;92946.69;5084408;28;20038;-84
2024/01/19 03:10:11;;;;;;;5.10;2.60;;;;;;;8.41;89.58;92952.34;5084586;28;20250;-84
2024/01/19 03:12:37;;;;;;;8.43;2.45;;;;;;;8.40;89.69;92948.88;5084521;28;20040;-83
2024/01/19 03:15:02;;;;;;;5.50;2.53;;;;;;;8.39;89.80;92947.31;5084506;28;20029;-83
2024/01/19 03:17:28;;;;;;;4.10;1.92;;;;;;;8.39;89.29;92942.00;5084550;28;20024;-83
2024/01/19 03:19:54;;;;;;;4.82;1.92;;;;;;;8.37;89.19;92943.44;5082571;28;20231;-83
2024/01/19 03:22:19;;;;;;;4.82;2.58;;;;;;;8.33;89.15;92942.53;5082856;28;20077;-84
2024/01/19 03:24:44;;;;;;;5.15;1.75;;;;;;;8.28;89.23;92932.06;5084295;28;20031;-84
2024/01/19 03:27:10;;;;;;;5.57;1.83;;;;;;;8.24;89.22;92929.28;5083982;28;20428;-81
2024/01/19 03:29:35;;;;;;;5.18;2.60;;;;;;;8.23;88.84;92938.34;5084362;28;20331;-80
2024/01/19 03:32:01;;;;;;;7.18;2.83;;;;;;;8.14;88.56;92929.66;5084259;28;20318;-79
2024/01/19 03:34:26;;;;;;;6.13;2.83;;;;;;;8.06;88.76;92931.25;5084168;28;20315;-80
2024/01/19 03:36:52;;;;;;;6.03;3.00;;;;;;;8.04;88.66;92939.53;5083937;28;20096;-80
2024/01/19 03:39:18;;;;;;;12.07;3.47;;;;;;;7.89;88.80;92931.31;5083853;28;20028;-80
2024/01/19 03:41:44;;;;;;;11.18;3.92;;;;;;;7.90;88.60;92940.84;5083801;28;20351;-79
2024/01/19 03:44:09;;;;;;;8.57;3.67;;;;;;;7.87;88.88;92946.78;5083933;28;20054;-79
2024/01/19 03:46:34;;;;;;;9.05;2.95;;;;;;;7.87;89.01;92942.25;5083936;28;20028;-79
2024/01/19 03:49:00;;;;;;;6.40;2.95;;;;;;;7.86;89.24;92945.22;5083854;28;20021;-79
2024/01/19 03:51:25;;;;;;;9.75;2.97;;;;;;;7.88;89.24;92959.72;5083599;28;20031;-79
2024/01/19 03:53:51;;;;;;;7.18;2.92;;;;;;;7.88;88.83;92954.44;5083803;28;20034;-80
2024/01/19 03:56:16;;;;;;;8.18;3.00;;;;;;;7.84;89.10;92975.50;5083723;28;20028;-79
2024/01/19 03:58:42;;;;;;;9.55;3.67;;;;;;;7.82;89.03;92953.81;5083696;28;20028;-77
2024/01/19 04:01:07;;;;;;;6.40;3.00;;;;;;;7.77;88.93;92964.59;5083484;28;20070;-77
2024/01/19 04:03:33;;;;;;;11.23;3.35;;;;;;;7.76;88.92;92963.03;5083525;28;20345;-78
2024/01/19 04:06:00;;;;;;;6.88;2.90;;;;;;;7.71;89.14;92965.09;5083288;28;20219;-78
2024/01/19 04:08:26;;;;;;;8.98;3.22;;;;;;;7.70;89.68;92960.88;5083469;28;20325;-79
2024/01/19 04:10:52;;;;;;;7.95;3.15;;;;;;;7.71;89.93;92975.69;5083301;28;20059;-79
2024/01/19 04:13:17;;;;;;;5.80;2.97;;;;;;;7.67;90.03;92964.16;5083428;28;20366;-79
2024/01/19 04:15:43;;;;;;;8.80;2.97;;;;;;;7.70;89.91;92972.25;5083449;28;20020;-77
2024/01/19 04:18:08;;;;;;;4.82;2.60;;;;;;;7.71;89.97;92959.78;5083274;28;20311;-77
2024/01/19 04:20:33;;;;;;;6.85;2.83;;;;;;;7.74;90.12;92959.16;5083084;28;20021;-78
2024/01/19 04:23:00;;;;;;;5.70;2.55;;;;;;;7.73;89.85;92963.66;5083139;28;20060;-80
2024/01/19 04:25:25;;;;;;;6.78;2.83;;;;;;;7.76;90.05;92957.75;5083151;28;20054;-79
2024/01/19 04:27:51;;;;;;;8.50;2.10;;;;;;;7.80;89.92;92950.69;5083098;28;20029;-79
2024/01/19 04:30:17;;;;;;;5.68;2.25;;;;;;;7.85;89.51;92952.41;5083025;28;20319;-80
2024/01/19 04:32:43;;;;;;;8.05;2.33;;;;;;;7.84;89.74;92951.63;5082714;28;20024;-80
2024/01/19 04:35:08;;;;;;;3.67;2.03;;;;;;;7.88;89.39;92958.97;5082856;28;20039;-79
2024/01/19 04:37:34;;;;;;;12.48;3.00;;;;;;;7.87;89.24;92936.16;5083083;28;20251;-79
2024/01/19 04:39:59;;;;;;;4.63;2.40;;;;;;;7.90;89.15;92964.72;5083011;28;20024;-79
2024/01/19 04:42:24;;;;;;;6.75;2.40;;;;;;;7.88;89.07;92962.38;5082983;28;20192;-79
2024/01/19 04:44:51;;;;;;;3.20;1.70;;;;;;;7.87;89.08;92954.75;5082920;28;20035;-79
2024/01/19 04:47:16;;;;;;;4.40;1.67;;;;;;;7.87;89.14;92960.03;5082782;28;20326;-79
2024/01/19 04:49:42;;;;;;;6.97;2.10;;;;;;;7.93;88.94;92940.19;5082866;28;20025;-79
2024/01/19 04:52:07;;;;;;;3.05;1.83;;;;;;;7.95;88.85;92959.22;5082578;28;20016;-79
2024/01/19 04:54:33;;;;;;;5.40;2.42;;;;;;;7.96;88.52;92958.94;5082780;28;20020;-79
2024/01/19 04:56:58;;;;;;;7.10;2.78;;;;;;;7.94;88.57;92955.03;5082781;28;20277;-79
2024/01/19 04:59:23;;;;;;;6.10;2.60;;;;;;;7.96;88.65;92976.72;5082769;28;20020;-79
2024/01/19 05:01:49;;;;;;;6.30;2.63;;;;;;;7.94;88.24;92960.34;5083013;28;20017;-79
2024/01/19 05:04:14;;;;;;;7.75;2.33;;;;;;;7.94;88.50;92970.97;5082595;28;20099;-80
2024/01/19 05:06:41;;;;;;;4.30;2.38;;;;;;;7.93;88.31;92980.00;5082846;28;20256;-80
2024/01/19 05:09:06;;;;;;;5.40;2.28;;;;;;;7.93;88.17;92978.13;5082912;28;20016;-80
2024/01/19 05:11:31;;;;;;;4.38;1.90;;;;;;;7.95;88.22;92969.84;5081314;28;20048;-81
2024/01/19 05:13:57;;;;;;;8.43;2.33;;;;;;;7.97;88.27;92983.56;5082535;28;20024;-82
2024/01/19 05:16:22;;;;;;;6.68;2.42;;;;;;;8.00;88.00;92972.34;5082879;28;20024;-82
2024/01/19 05:18:48;;;;;;;6.75;2.70;;;;;;;8.02;88.24;92975.47;5082687;28;20044;-83
2024/01/19 05:21:13;;;;;;;5.28;2.78;;;;;;;8.04;87.93;92982.00;5082689;28;20020;-82
2024/01/19 05:23:39;;;;;;;6.53;2.97;;;;;;;8.08;87.79;92992.75;5082569;28;20021;-82
2024/01/19 05:26:04;;;;;;;9.55;3.00;;;;;;;8.08;87.41;92984.00;5081676;28;20043;-82
2024/01/19 05:28:36;;;;;;;8.02;3.08;;;;;;;8.10;87.65;92995.88;5082581;28;20020;-80
2024/01/19 05:31:02;;;;;;;8.70;2.83;;;;;;;8.12;87.36;92993.69;5082589;28;20012;-80
2024/01/19 05:33:30;;;;;;;4.78;2.35;;;;;;;8.11;87.85;92994.78;5082434;28;20016;-81
2024/01/19 05:35:56;;;;;;;5.53;2.97;;;;;;;8.09;87.70;92996.19;5082600;28;20038;-81
2024/01/19 05:38:22;;;;;;;6.72;3.33;;;;;;;8.02;87.75;92997.47;5082545;28;20020;-81
2024/01/19 05:40:47;;;;;;;11.40;3.70;;;;;;;8.08;87.72;92991.97;5082504;28;20035;-80
2024/01/19 05:43:13;;;;;;;7.28;2.90;;;;;;;8.08;87.75;93006.03;5081518;28;20028;-79
2024/01/19 05:45:38;;;;;;;7.00;3.10;;;;;;;8.08;88.00;93000.72;5086012;28;20066;-79
2024/01/19 05:48:04;;;;;;;7.20;3.22;;;;;;;8.09;87.99;93012.88;5085818;28;20218;-79
2024/01/19 05:50:30;;;;;;;9.55;3.05;;;;;;;8.12;87.97;93009.59;5085955;28;20033;-79
2024/01/19 05:52:57;;;;;;;10.20;3.25;;;;;;;8.11;87.88;92973.53;5084802;28;20226;-78
2024/01/19 05:55:22;;;;;;;4.60;2.50;;;;;;;8.11;87.88;92986.81;5085945;28;20024;-79
2024/01/19 05:57:47;;;;;;;10.38;3.83;;;;;;;8.11;87.74;92997.41;5086275;28;20028;-79
2024/01/19 06:00:13;;;;;;;5.95;2.85;;;;;;;8.08;87.65;92995.41;5085711;28;20028;-78
2024/01/19 06:02:39;;;;;;;6.00;3.00;;;;;;;8.01;88.13;92989.81;5085803;28;20040;-77
2024/01/19 06:05:04;;;;;;;9.60;2.63;;;;;;;8.02;88.16;92996.69;5085795;28;20107;-80
2024/01/19 06:07:32;;;;;;;5.82;2.53;;;;;;;8.01;88.04;93000.44;5085904;28;20027;-80
2024/01/19 06:09:58;;;;;;;6.53;2.47;;;;;;;8.02;88.38;92984.19;5084647;28;20016;-81
2024/01/19 06:12:23;;;;;;;5.63;2.35;;;;;;;8.03;88.41;92985.72;5085572;28;20048;-83
2024/01/19 06:14:49;;;;;;;8.77;2.78;;;;;;;8.08;88.05;93002.56;5085992;28;20398;-82
2024/01/19 06:17:15;;;;;;;9.80;3.00;;;;;;;8.09;88.04;93001.50;5085760;28;20032;-81
2024/01/19 06:19:41;;;;;;;7.35;3.38;;;;;;;8.10;88.33;93008.34;5085728;28;20025;-81
2024/01/19 06:22:06;;;;;;;6.93;2.88;;;;;;;8.02;88.28;93016.03;5085390;28;20059;-80
2024/01/19 06:24:36;;;;;;;6.55;2.65;;;;;;;7.98;88.79;93009.03;5085815;28;20021;-81
2024/01/19 06:27:03;;;;;;;10.27;3.00;;;;;;;8.01;88.48;93027.72;5085352;28;20020;-81
2024/01/19 06:29:28;;;;;;;6.68;3.20;;;;;;;7.97;88.79;93020.72;5085686;28;20017;-81
2024/01/19 06:31:54;;;;;;;10.02;3.13;;;;;;;7.99;88.98;93029.16;5085454;28;20020;-82
2024/01/19 06:34:19;;;;;;;4.03;2.35;;;;;;;8.00;88.61;93036.03;5085583;28;20024;-80
2024/01/19 06:36:45;;;;;;;6.35;2.45;;;;;;;8.02;88.47;93033.84;5085490;28;20093;-83
2024/01/19 06:39:13;;;;;;;8.80;3.35;;;;;;;8.00;88.40;93031.50;5085019;28;20048;-73
2024/01/19 06:41:43;;;;;;;7.38;3.65;;;;;;;8.02;88.04;93044.47;5084440;28;20031;-73
2024/01/19 06:44:12;;;;;;;13.20;3.83;;;;;;;8.05;88.14;93049.13;5082227;28;20040;-74
2024/01/19 06:46:38;;;;;;;8.55;3.05;;;;;;;8.00;88.50;93041.34;5083195;28;20095;-73
2024/01/19 06:49:04;;;;;;;8.45;3.40;;;;;;;8.02;88.25;93053.19;5082205;28;20062;-72
2024/01/19 06:51:29;;;;;;;6.63;3.08;;;;;;;8.03;88.25;93056.63;5083195;28;20132;-72
2024/01/19 06:53:56;;;;;;;8.45;3.00;;;;;;;8.01;88.19;93059.56;5083217;28;20016;-72
2024/01/19 06:56:22;;;;;;;8.52;3.10;;;;;;;8.09;88.40;93065.19;5082363;28;20028;-73
2024/01/19 06:58:47;;;;;;;6.47;3.00;;;;;;;8.13;87.89;93061.59;5084452;28;20223;-73
2024/01/19 07:01:13;;;;;;;7.22;4.32;;;;;;;8.18;87.79;93068.59;5084654;28;20087;-72
2024/01/19 07:03:38;;;;;;;11.77;4.88;;;;;;;8.20;87.94;93067.19;5084667;28;20089;-73
2024/01/19 07:06:04;;;;;;;9.30;4.50;;;;;;;8.28;87.63;93068.25;5084537;28;20087;-68
2024/01/19 07:08:29;;;;;;;11.93;4.97;;;;;;;8.33;89.01;93078.72;5084488;28;20077;-68
2024/01/19 07:10:54;;;;;;;8.48;4.35;;;;;;;8.37;89.66;93065.59;5084302;28;20326;-68
2024/01/19 07:13:20;;;;;;;8.98;4.53;;;;;;;8.50;89.04;93069.16;5084546;28;20020;-68
2024/01/19 07:15:45;;;;;;;9.40;4.07;;;;;;;8.55;88.04;93084.91;5084420;28;20315;-67
2024/01/19 07:18:11;;;;;;;9.43;4.38;;;;;;;8.61;86.86;93073.78;5084078;28;20020;-69
2024/01/19 07:20:36;;;;;;;5.60;3.50;;;;;;;8.65;86.30;93076.59;5084041;28;20031;-70
2024/01/19 07:23:03;;;;;;;8.77;4.97;;;;;;;8.66;86.55;93072.06;5084242;28;20119;-67
2024/01/19 07:25:29;;;;;;;11.77;4.95;;;;;;;8.72;86.83;93070.78;5084053;28;20024;-68
2024/01/19 07:27:54;;;;;;;9.18;3.92;;;;;;;8.75;86.47;93064.81;5084193;28;20016;-68
2024/01/19 07:30:19;;;;;;;7.63;4.15;;;;;;;8.78;86.47;93058.88;5084194;28;20023;-68
2024/01/19 07:32:45;;;;;;;9.55;3.90;;;;;;;8.78;86.21;93072.94;5083837;28;20044;-67
2024/01/19 07:35:10;;;;;;;9.35;4.18;;;;;;;8.87;86.18;93074.75;5083650;28;20303;-75
2024/01/19 07:37:36;;;;;;;7.95;3.35;;;;;;;8.94;86.10;93067.06;5083773;28;20025;-75
2024/01/19 07:40:01;;;;;;;8.73;4.00;;;;;;;9.03;86.08;93073.88;5083795;28;20040;-75
2024/01/19 07:42:26;;;;;;;9.43;3.88;;;;;;;9.13;85.54;93075.38;5083803;28;20024;-75
2024/01/19 07:44:52;;;;;;;8.98;3.97;;;;;;;9.22;85.07;93062.81;5083534;28;20020;-75
2024/01/19 07:47:17;;;;;;;8.05;3.53;;;;;;;9.31;85.05;93078.72;5082852;28;20322;-75
2024/01/19 07:49:42;;;;;;;10.07;3.97;;;;;;;9.39;84.56;93077.09;5082873;28;20223;-76
2024/01/19 07:52:08;;;;;;;5.57;2.78;;;;;;;9.48;84.12;93087.66;5083807;28;20183;-75
2024/01/19 07:54:33;;;;;;;11.40;2.97;;;;;;;9.56;83.89;93076.19;5083662;28;20231;-75
2024/01/19 07:56:59;;;;;;;9.05;3.15;;;;;;;9.64;83.33;93093.97;5083384;28;20027;-75
2024/01/19 07:59:24;;;;;;;11.45;4.32;;;;;;;9.65;82.15;93090.22;5082959;28;20024;-75
2024/01/19 08:01:50;;;;;;;11.23;3.45;;;;;;;9.65;82.92;93079.56;5083533;28;20039;-75
2024/01/19 08:04:15;;;;;;;10.80;4.07;;;;;;;9.72;83.11;93097.66;5083189;28;20327;-73
2024/01/19 08:06:41;;;;;;;9.45;3.00;;;;;;;9.79;83.28;93074.75;5082692;28;20032;-74
2024/01/19 08:09:07;;;;;;;6.00;2.22;;;;;;;9.94;82.56;93085.91;5081998;28;20020;-74
2024/01/19 08:11:33;;;;;;;8.85;2.80;;;;;;;10.03;82.24;93094.56;5082928;28;20036;-74
2024/01/19 08:13:58;;;;;;;8.43;2.97;;;;;;;10.10;82.07;93094.06;5082867;28;20020;-74
2024/01/19 08:16:24;;;;;;;9.23;2.75;;;;;;;10.20;81.87;93089.09;5082966;28;20040;-75
2024/01/19 08:18:49;;;;;;;11.80;2.95;;;;;;;10.31;81.44;93083.38;5083100;28;20012;-74
2024/01/19 08:21:14;;;;;;;4.85;2.38;;;;;;;10.43;80.52;93096.72;5082886;28;20334;-75
2024/01/19 08:23:40;;;;;;;7.32;2.85;;;;;;;10.50;80.53;93091.63;5082877;28;20204;-75
2024/01/19 08:26:06;;;;;;;7.07;2.90;;;;;;;10.60;79.83;93096.53;5083008;28;20059;-75
2024/01/19 08:28:32;;;;;;;7.20;2.90;;;;;;;10.64;78.21;93123.28;5082829;28;20078;-76
2024/01/19 08:30:57;;;;;;;8.38;3.63;;;;;;;10.68;77.43;93118.06;5082589;28;20348;-74
2024/01/19 08:33:23;;;;;;;7.05;3.03;;;;;;;10.75;77.57;93107.66;5082509;28;20103;-73
2024/01/19 08:35:49;;;;;;;10.02;3.08;;;;;;;10.84;77.12;93117.06;5082392;28;20036;-74
2024/01/19 08:38:15;;;;;;;9.05;3.22;;;;;;;10.89;77.22;93113.44;5082622;28;20125;-74
2024/01/19 08:40:40;;;;;;;10.65;3.25;;;;;;;10.97;77.00;93125.88;5082621;28;20102;-74
2024/01/19 08:43:06;;;;;;;8.73;3.47;;;;;;;10.97;76.71;93115.22;5082577;28;20027;-74
2024/01/19 08:45:31;;;;;;;10.05;3.55;;;;;;;11.03;76.61;93123.75;5082430;28;20055;-74
2024/01/19 08:47:58;;;;;;;9.40;3.78;;;;;;;11.06;75.85;93120.44;5082423;28;20046;-74
2024/01/19 08:50:24;;;;;;;10.90;3.55;;;;;;;11.03;76.10;93127.22;5082778;28;20087;-74
2024/01/19 08:52:50;;;;;;;7.47;3.17;;;;;;;11.03;76.28;93124.53;5082771;28;20253;-74
2024/01/19 08:55:15;;;;;;;8.05;3.65;;;;;;;11.11;76.30;93124.75;5082647;28;20024;-74
2024/01/19 08:57:41;;;;;;;8.68;3.53;;;;;;;11.16;75.81;93133.31;5082308;28;20047;-74
2024/01/19 09:00:07;;;;;;;14.52;3.53;;;;;;;11.19;75.61;93124.66;5082293;28;20017;-74
2024/01/19 09:02:33;;;;;;;13.57;4.22;;;;;;;11.27;75.45;93117.63;5082532;28;20021;-74
2024/01/19 09:04:59;;;;;;;9.70;4.18;;;;;;;11.34;75.55;93119.75;5082371;28;20024;-74
2024/01/19 09:07:25;;;;;;;9.60;3.90;;;;;;;11.45;74.27;93129.63;5082411;28;20072;-74
2024/01/19 09:09:50;;;;;;;8.93;4.18;;;;;;;11.47;74.47;93123.19;5081226;28;20091;-77
2024/01/19 09:12:15;;;;;;;10.23;4.10;;;;;;;11.52;74.52;93102.38;5082303;28;20276;-75
2024/01/19 09:14:41;;;;;;;12.73;4.90;;;;;;;11.61;74.68;93108.34;5082393;28;20311;-75
2024/01/19 09:17:06;;;;;;;7.55;3.97;;;;;;;11.69;74.69;93090.66;5082315;28;20020;-75
2024/01/19 09:19:32;;;;;;;8.73;3.30;;;;;;;11.74;73.53;93101.09;5086020;28;20031;-75
2024/01/19 09:21:57;;;;;;;12.70;3.45;;;;;;;11.79;73.32;93092.09;5086258;28;20025;-75
2024/01/19 09:24:23;;;;;;;11.82;3.80;;;;;;;11.83;73.59;93085.72;5086344;28;20310;-76
2024/01/19 09:26:48;;;;;;;13.00;3.97;;;;;;;11.84;73.80;93087.28;5086461;28;20032;-75
2024/01/19 09:29:13;;;;;;;10.95;4.32;;;;;;;11.91;73.54;93083.28;5086551;28;20211;-75
2024/01/19 09:31:46;;;;;;;10.15;4.68;;;;;;;11.94;73.41;93088.69;5086371;28;20062;-76
2024/01/19 09:34:12;;;;;;;10.30;4.20;;;;;;;11.98;73.47;93080.78;5086081;28;20036;-75
2024/01/19 09:36:38;;;;;;;8.15;3.45;;;;;;;12.02;73.71;93076.31;5086230;28;20033;-75
2024/01/19 09:39:04;;;;;;;14.73;4.35;;;;;;;12.11;74.01;93079.63;5085982;28;20037;-75
2024/01/19 09:41:36;;;;;;;11.50;3.78;;;;;;;12.23;73.59;93070.75;5085999;28;20107;-76
2024/01/19 09:44:09;;;;;;;11.80;3.70;;;;;;;12.36;73.75;93063.47;5086032;28;20100;-76
2024/01/19 09:46:57;;;;;;;11.05;3.80;;;;;;;12.49;73.73;93072.97;5084605;28;20342;-76
2024/01/19 09:49:36;;;;;;;14.48;4.07;;;;;;;12.61;72.61;93074.78;5085848;28;20040;-76
2024/01/19 09:52:24;;;;;;;12.25;4.18;;;;;;;12.72;73.03;93069.69;5085680;28;20039;-76
2024/01/19 09:54:50;;;;;;;13.18;4.45;;;;;;;12.85;72.82;93069.25;5085860;28;20253;-77
2024/01/19 09:57:15;;;;;;;12.82;3.63;;;;;;;12.97;72.13;93076.41;5085499;28;20061;-76
2024/01/19 09:59:41;;;;;;;10.77;3.50;;;;;;;13.07;71.63;93074.31;5085524;28;20101;-76
2024/01/19 10:02:06;;;;;;;8.20;3.58;;;;;;;13.15;71.20;93078.75;5085522;28;20044;-76
2024/01/19 10:04:32;;;;;;;17.65;3.72;;;;;;;13.28;69.94;93072.16;5085469;28;20099;-77
2024/01/19 10:06:57;;;;;;;8.68;3.60;;;;;;;13.34;68.99;93060.06;5085309;28;20020;-77
2024/01/19 10:09:23;;;;;;;18.58;3.55;;;;;;;13.35;67.95;93053.63;5085456;28;20351;-77
2024/01/19 10:11:54;;;;;;;12.18;3.60;;;;;;;13.33;67.53;93061.22;5085469;28;20277;-77
2024/01/19 10:14:21;;;;;;;12.65;3.45;;;;;;;13.31;67.46;93066.13;5085607;28;20029;-76
2024/01/19 10:16:52;;;;;;;16.27;3.88;;;;;;;13.26;67.29;93050.31;5085461;28;20061;-77
2024/01/19 10:19:22;;;;;;;15.13;3.20;;;;;;;13.21;67.04;93026.50;5085336;28;20032;-77
2024/01/19 10:21:50;;;;;;;13.38;3.90;;;;;;;13.14;67.64;93037.81;5083911;28;20028;-76
2024/01/19 10:24:20;;;;;;;11.50;3.40;;;;;;;13.14;68.04;93037.03;5085144;28;20323;-76
2024/01/19 10:26:53;;;;;;;17.80;4.95;;;;;;;13.07;67.56;93026.97;5085146;28;20223;-76
2024/01/19 10:29:19;;;;;;;12.48;2.15;;;;;;;12.95;63.89;93019.81;5084480;28;20021;-75
2024/01/19 10:31:50;;;;;;;19.25;6.05;;;;;;;12.92;60.64;93022.41;5085152;28;20029;-73
2024/01/19 10:34:27;;;;;;;13.65;4.38;;;;;;;12.97;62.79;93017.56;5085031;28;20044;-72
2024/01/19 10:36:52;;;;;;;13.25;4.97;;;;;;;13.01;65.44;93017.66;5084754;28;20039;-72
2024/01/19 10:39:19;;;;;;;23.83;5.32;;;;;;;13.05;67.09;93018.53;5084941;28;20024;-73
2024/01/19 10:41:45;;;;;;;19.27;5.13;;;;;;;12.89;66.85;93009.75;5084770;28;20051;-72
2024/01/19 10:44:13;;;;;;;12.48;3.05;;;;;;;12.61;63.82;92995.34;5084702;28;20039;-72
2024/01/19 10:46:40;;;;;;;7.90;2.53;;;;;;;12.77;60.70;93007.94;5084629;28;20110;-72
2024/01/19 10:49:08;;;;;;;7.47;1.77;;;;;;;13.00;57.70;92982.09;5083540;28;20690;-71
2024/01/19 10:51:42;;;;;;;9.07;2.28;;;;;;;13.11;60.79;92962.81;5084577;28;20032;-74
2024/01/19 10:54:10;;;;;;;10.90;2.50;;;;;;;13.23;61.51;92976.09;5084049;28;20033;-75
2024/01/19 10:56:38;;;;;;;9.85;3.25;;;;;;;13.35;61.01;92972.53;5083529;28;20016;-75
2024/01/19 10:59:14;;;;;;;10.95;3.92;;;;;;;13.25;63.61;92985.31;5082717;28;20088;-76
2024/01/19 11:01:41;;;;;;;17.25;3.97;;;;;;;13.43;64.91;92990.28;5083011;28;20254;-76
2024/01/19 11:04:08;;;;;;;13.02;3.83;;;;;;;13.57;64.64;92997.81;5083570;28;20059;-76
2024/01/19 11:06:36;;;;;;;16.23;4.07;;;;;;;13.79;63.46;92989.06;5083417;28;20273;-76
2024/01/19 11:09:05;;;;;;;11.40;3.28;;;;;;;14.05;62.93;92982.28;5083173;28;20043;-76
2024/01/19 11:11:35;;;;;;;11.93;3.35;;;;;;;14.23;61.00;92988.72;5081297;28;20055;-76
2024/01/19 11:14:06;;;;;;;8.38;2.40;;;;;;;14.41;58.55;92977.50;5083249;28;20323;-76
2024/01/19 11:16:42;;;;;;;9.20;1.90;;;;;;;14.64;55.67;92983.69;5083745;28;20035;-76
2024/01/19 11:19:08;;;;;;;8.30;2.67;;;;;;;14.79;55.06;92983.91;5083638;28;20059;-76
2024/01/19 11:21:34;;;;;;;5.20;2.15;;;;;;;14.83;54.12;92976.66;5084125;28;20058;-76
2024/01/19 11:24:03;;;;;;;3.67;1.10;;;;;;;14.78;49.30;92983.13;5083874;28;20138;-76
2024/01/19 11:26:46;;;;;;;11.30;1.75;;;;;;;14.84;50.04;92980.91;5084209;28;20241;-76
2024/01/19 11:29:31;;;;;;;11.77;2.42;;;;;;;14.81;48.86;92962.84;5084065;28;20040;-76
2024/01/19 11:31:58;;;;;;;10.10;1.20;;;;;;;14.82;49.76;92970.53;5083832;28;20017;-76